Aviation Digital Data Service (ADDS)

Output produced by METARs form (1933 UTC 23 June 2018)
found at http://aviationweather.gov/adds/metars/
 
KARA 231720Z 2318/2418 20012G18KT P6SM SCT025 SCT040 
     FM240100 17006KT P6SM FEW025 
     TEMPO 2409/2413 BKN018 
     FM241500 19011G17KT P6SM BKN025